MMZC/ZCL METAR and TAF weather

Enter ICAO airport designator
Station Type Date Time Source
MMZC METAR 2019/12/08 00:46 UTC NOAA

MMZC 080046Z 03006KT 10SM SKC 17/01 A3032


Station Type Date Time Source
MMZC Decoded METAR 2019/12/08 00:46 UTC NOAA

Zacatecas Airport, Mexico (MMZC) 22-54N 102-41W
Dec 07, 2019 - 07:46 PM EST / 2019.12.08 0046 UTC
Wind: from the NNE (030 degrees) at 7 MPH (6 KT):0
Visibility: 10 mile(s):0
Sky conditions: clear
Temperature: 62 F (17 C)
Dew Point: 33 F (1 C)
Relative Humidity: 33%
Pressure (altimeter): 30.32 in. Hg (1026 hPa)
ob: MMZC 080046Z 03006KT 10SM SKC 17/01 A3032
cycle: 1

Station Type Date Time Source
MMZC TAF 2019/12/07 18:29 UTC NOAA

TAF MMZC 071722Z 0718/0824 13005KT P6SM SKC TX23/0722Z TN06/0813Z
BECMG 0720/0721 13012KT
FM080200 16005KT P6SM SKC
BECMG 0805/0806 00000KT
FM081800 25005KT P6SM SKC
BECMG 0820/0821 25012KT

Example: see airport list